sensor_id;sensor_type;location;lat;lon;timestamp;P1;durP1;ratioP1;P2;durP2;ratioP2
295;SDS011;132;48.770;9.200;2022-07-03T00:00:45;5.20;;;2.43;;
295;SDS011;132;48.770;9.200;2022-07-03T00:03:12;13.30;;;8.87;;
295;SDS011;132;48.770;9.200;2022-07-03T00:05:38;7.63;;;5.63;;
295;SDS011;132;48.770;9.200;2022-07-03T00:08:05;5.47;;;4.00;;
295;SDS011;132;48.770;9.200;2022-07-03T00:10:31;4.00;;;3.50;;
295;SDS011;132;48.770;9.200;2022-07-03T00:12:58;5.10;;;2.60;;
295;SDS011;132;48.770;9.200;2022-07-03T00:15:24;4.07;;;3.10;;
295;SDS011;132;48.770;9.200;2022-07-03T00:17:51;3.27;;;2.50;;
295;SDS011;132;48.770;9.200;2022-07-03T00:20:17;5.30;;;3.70;;
295;SDS011;132;48.770;9.200;2022-07-03T00:22:45;5.37;;;3.73;;
295;SDS011;132;48.770;9.200;2022-07-03T00:25:12;5.70;;;3.47;;
295;SDS011;132;48.770;9.200;2022-07-03T00:27:39;4.10;;;3.20;;
295;SDS011;132;48.770;9.200;2022-07-03T00:30:09;4.60;;;2.97;;
295;SDS011;132;48.770;9.200;2022-07-03T00:32:38;4.33;;;3.10;;
295;SDS011;132;48.770;9.200;2022-07-03T00:35:07;4.43;;;3.00;;
295;SDS011;132;48.770;9.200;2022-07-03T00:37:34;15.47;;;10.07;;
295;SDS011;132;48.770;9.200;2022-07-03T00:40:01;10.90;;;7.77;;
295;SDS011;132;48.770;9.200;2022-07-03T00:42:27;27.10;;;15.63;;
295;SDS011;132;48.770;9.200;2022-07-03T00:44:56;23.10;;;12.27;;
295;SDS011;132;48.770;9.200;2022-07-03T00:47:23;9.27;;;6.17;;
295;SDS011;132;48.770;9.200;2022-07-03T00:49:52;21.23;;;12.70;;
295;SDS011;132;48.770;9.200;2022-07-03T00:52:21;14.63;;;10.73;;
295;SDS011;132;48.770;9.200;2022-07-03T00:54:52;15.90;;;9.73;;
295;SDS011;132;48.770;9.200;2022-07-03T00:57:21;10.37;;;7.40;;
295;SDS011;132;48.770;9.200;2022-07-03T00:59:48;11.77;;;6.47;;
295;SDS011;132;48.770;9.200;2022-07-03T01:02:19;10.20;;;5.90;;
295;SDS011;132;48.770;9.200;2022-07-03T01:04:52;12.83;;;6.90;;
295;SDS011;132;48.770;9.200;2022-07-03T01:10:05;8.37;;;5.40;;
295;SDS011;132;48.770;9.200;2022-07-03T01:12:54;14.00;;;6.20;;
295;SDS011;132;48.770;9.200;2022-07-03T01:18:49;8.27;;;4.90;;
295;SDS011;132;48.770;9.200;2022-07-03T01:28:08;5.07;;;3.80;;
295;SDS011;132;48.770;9.200;2022-07-03T01:30:13;13.40;;;3.97;;
295;SDS011;132;48.770;9.200;2022-07-03T01:32:44;6.37;;;4.10;;
295;SDS011;132;48.770;9.200;2022-07-03T01:35:12;5.73;;;3.83;;
295;SDS011;132;48.770;9.200;2022-07-03T01:37:47;4.30;;;3.87;;
295;SDS011;132;48.770;9.200;2022-07-03T01:40:16;4.77;;;3.53;;
295;SDS011;132;48.770;9.200;2022-07-03T01:42:44;5.00;;;3.67;;
295;SDS011;132;48.770;9.200;2022-07-03T01:45:13;4.80;;;3.90;;
295;SDS011;132;48.770;9.200;2022-07-03T01:47:41;4.70;;;3.80;;
295;SDS011;132;48.770;9.200;2022-07-03T01:50:11;7.60;;;3.97;;
295;SDS011;132;48.770;9.200;2022-07-03T01:52:41;4.50;;;3.70;;
295;SDS011;132;48.770;9.200;2022-07-03T01:55:09;5.73;;;3.83;;
295;SDS011;132;48.770;9.200;2022-07-03T01:57:41;6.07;;;3.73;;
295;SDS011;132;48.770;9.200;2022-07-03T02:00:11;8.47;;;3.83;;
295;SDS011;132;48.770;9.200;2022-07-03T02:10:54;13.63;;;3.87;;
295;SDS011;132;48.770;9.200;2022-07-03T02:13:37;4.37;;;3.40;;
295;SDS011;132;48.770;9.200;2022-07-03T02:16:42;4.40;;;3.60;;
295;SDS011;132;48.770;9.200;2022-07-03T02:19:17;7.40;;;3.40;;
295;SDS011;132;48.770;9.200;2022-07-03T02:21:49;4.17;;;3.53;;
295;SDS011;132;48.770;9.200;2022-07-03T02:24:23;5.00;;;3.70;;
295;SDS011;132;48.770;9.200;2022-07-03T02:27:12;4.27;;;3.20;;
295;SDS011;132;48.770;9.200;2022-07-03T02:29:54;5.60;;;3.50;;
295;SDS011;132;48.770;9.200;2022-07-03T02:32:24;9.20;;;3.53;;
295;SDS011;132;48.770;9.200;2022-07-03T02:34:58;4.10;;;3.40;;
295;SDS011;132;48.770;9.200;2022-07-03T02:37:32;5.13;;;3.90;;
295;SDS011;132;48.770;9.200;2022-07-03T02:40:04;6.33;;;3.47;;
295;SDS011;132;48.770;9.200;2022-07-03T02:45:22;8.93;;;3.73;;
295;SDS011;132;48.770;9.200;2022-07-03T02:47:54;4.63;;;3.60;;
295;SDS011;132;48.770;9.200;2022-07-03T02:50:28;4.83;;;3.90;;
295;SDS011;132;48.770;9.200;2022-07-03T02:55:47;6.50;;;3.93;;
295;SDS011;132;48.770;9.200;2022-07-03T03:00:53;4.17;;;3.63;;
295;SDS011;132;48.770;9.200;2022-07-03T03:03:19;4.43;;;3.30;;
295;SDS011;132;48.770;9.200;2022-07-03T03:05:53;7.13;;;3.70;;
295;SDS011;132;48.770;9.200;2022-07-03T03:10:59;4.67;;;3.23;;
295;SDS011;132;48.770;9.200;2022-07-03T03:13:31;4.10;;;3.37;;
295;SDS011;132;48.770;9.200;2022-07-03T03:16:02;5.53;;;3.50;;
295;SDS011;132;48.770;9.200;2022-07-03T03:18:38;7.83;;;3.50;;
295;SDS011;132;48.770;9.200;2022-07-03T03:21:09;5.17;;;3.27;;
295;SDS011;132;48.770;9.200;2022-07-03T03:26:21;4.40;;;3.30;;
295;SDS011;132;48.770;9.200;2022-07-03T03:28:50;4.70;;;3.30;;
295;SDS011;132;48.770;9.200;2022-07-03T03:31:17;4.23;;;2.77;;
295;SDS011;132;48.770;9.200;2022-07-03T03:33:45;6.47;;;3.10;;
295;SDS011;132;48.770;9.200;2022-07-03T03:36:14;4.07;;;2.97;;
295;SDS011;132;48.770;9.200;2022-07-03T03:38:44;3.13;;;2.60;;
295;SDS011;132;48.770;9.200;2022-07-03T03:41:12;4.37;;;2.70;;
295;SDS011;132;48.770;9.200;2022-07-03T03:43:38;7.93;;;2.63;;
295;SDS011;132;48.770;9.200;2022-07-03T03:46:05;3.60;;;2.70;;
295;SDS011;132;48.770;9.200;2022-07-03T03:48:31;2.73;;;2.50;;
295;SDS011;132;48.770;9.200;2022-07-03T03:50:59;3.50;;;2.87;;
295;SDS011;132;48.770;9.200;2022-07-03T03:53:26;2.53;;;2.37;;
295;SDS011;132;48.770;9.200;2022-07-03T03:56:07;3.00;;;2.80;;
295;SDS011;132;48.770;9.200;2022-07-03T03:58:36;4.47;;;2.80;;
295;SDS011;132;48.770;9.200;2022-07-03T04:01:04;5.40;;;2.70;;
295;SDS011;132;48.770;9.200;2022-07-03T04:03:33;3.20;;;2.70;;
295;SDS011;132;48.770;9.200;2022-07-03T04:05:59;3.10;;;2.90;;
295;SDS011;132;48.770;9.200;2022-07-03T04:08:27;3.53;;;2.67;;
295;SDS011;132;48.770;9.200;2022-07-03T04:10:54;2.60;;;2.50;;
295;SDS011;132;48.770;9.200;2022-07-03T04:13:20;3.60;;;2.47;;
295;SDS011;132;48.770;9.200;2022-07-03T04:15:48;2.83;;;2.60;;
295;SDS011;132;48.770;9.200;2022-07-03T04:18:15;4.10;;;2.80;;
295;SDS011;132;48.770;9.200;2022-07-03T04:20:42;3.93;;;2.97;;
295;SDS011;132;48.770;9.200;2022-07-03T04:23:09;3.57;;;2.57;;
295;SDS011;132;48.770;9.200;2022-07-03T04:25:35;3.40;;;2.63;;
295;SDS011;132;48.770;9.200;2022-07-03T04:28:02;3.30;;;2.67;;
295;SDS011;132;48.770;9.200;2022-07-03T04:30:28;3.17;;;2.97;;
295;SDS011;132;48.770;9.200;2022-07-03T04:32:55;5.97;;;3.13;;
295;SDS011;132;48.770;9.200;2022-07-03T04:35:21;4.10;;;3.03;;
295;SDS011;132;48.770;9.200;2022-07-03T04:37:48;3.87;;;3.27;;
295;SDS011;132;48.770;9.200;2022-07-03T04:40:14;4.10;;;2.80;;
295;SDS011;132;48.770;9.200;2022-07-03T04:42:40;3.60;;;2.87;;
295;SDS011;132;48.770;9.200;2022-07-03T04:45:07;7.90;;;3.53;;
295;SDS011;132;48.770;9.200;2022-07-03T04:47:34;5.20;;;3.30;;
295;SDS011;132;48.770;9.200;2022-07-03T04:50:00;3.50;;;2.50;;
295;SDS011;132;48.770;9.200;2022-07-03T04:52:27;5.07;;;2.97;;
295;SDS011;132;48.770;9.200;2022-07-03T04:54:54;4.67;;;3.10;;
295;SDS011;132;48.770;9.200;2022-07-03T04:57:20;3.83;;;2.97;;
295;SDS011;132;48.770;9.200;2022-07-03T04:59:46;5.87;;;3.20;;
295;SDS011;132;48.770;9.200;2022-07-03T05:02:13;6.63;;;3.23;;
295;SDS011;132;48.770;9.200;2022-07-03T05:04:39;7.87;;;3.57;;
295;SDS011;132;48.770;9.200;2022-07-03T05:07:06;3.20;;;2.70;;
295;SDS011;132;48.770;9.200;2022-07-03T05:09:32;2.63;;;2.43;;
295;SDS011;132;48.770;9.200;2022-07-03T05:11:58;2.70;;;2.47;;
295;SDS011;132;48.770;9.200;2022-07-03T05:14:25;3.63;;;2.70;;
295;SDS011;132;48.770;9.200;2022-07-03T05:16:51;4.53;;;2.70;;
295;SDS011;132;48.770;9.200;2022-07-03T05:19:18;3.60;;;2.60;;
295;SDS011;132;48.770;9.200;2022-07-03T05:21:44;4.33;;;2.87;;
295;SDS011;132;48.770;9.200;2022-07-03T05:24:11;3.80;;;3.07;;
295;SDS011;132;48.770;9.200;2022-07-03T05:26:37;3.47;;;2.80;;
295;SDS011;132;48.770;9.200;2022-07-03T05:29:03;3.60;;;2.67;;
295;SDS011;132;48.770;9.200;2022-07-03T05:31:30;2.37;;;2.20;;
295;SDS011;132;48.770;9.200;2022-07-03T05:33:56;4.47;;;2.60;;
295;SDS011;132;48.770;9.200;2022-07-03T05:36:22;2.93;;;2.47;;
295;SDS011;132;48.770;9.200;2022-07-03T05:38:49;3.37;;;2.50;;
295;SDS011;132;48.770;9.200;2022-07-03T05:41:34;6.10;;;2.27;;
295;SDS011;132;48.770;9.200;2022-07-03T05:44:01;2.90;;;2.70;;
295;SDS011;132;48.770;9.200;2022-07-03T05:46:27;2.70;;;2.50;;
295;SDS011;132;48.770;9.200;2022-07-03T05:48:54;2.63;;;2.50;;
295;SDS011;132;48.770;9.200;2022-07-03T05:51:20;2.63;;;2.40;;
295;SDS011;132;48.770;9.200;2022-07-03T05:53:46;2.47;;;2.27;;
295;SDS011;132;48.770;9.200;2022-07-03T05:56:13;3.73;;;2.60;;
295;SDS011;132;48.770;9.200;2022-07-03T05:58:39;2.97;;;2.47;;
295;SDS011;132;48.770;9.200;2022-07-03T06:01:07;2.93;;;2.67;;
295;SDS011;132;48.770;9.200;2022-07-03T06:03:33;3.57;;;2.47;;
295;SDS011;132;48.770;9.200;2022-07-03T06:05:59;2.27;;;2.10;;
295;SDS011;132;48.770;9.200;2022-07-03T06:08:26;2.40;;;2.20;;
295;SDS011;132;48.770;9.200;2022-07-03T06:10:53;3.57;;;2.60;;
295;SDS011;132;48.770;9.200;2022-07-03T06:13:19;2.67;;;2.27;;
295;SDS011;132;48.770;9.200;2022-07-03T06:15:45;3.07;;;2.43;;
295;SDS011;132;48.770;9.200;2022-07-03T06:18:12;4.40;;;2.50;;
295;SDS011;132;48.770;9.200;2022-07-03T06:20:38;3.10;;;2.50;;
295;SDS011;132;48.770;9.200;2022-07-03T06:23:05;4.10;;;2.80;;
295;SDS011;132;48.770;9.200;2022-07-03T06:25:31;2.43;;;2.30;;
295;SDS011;132;48.770;9.200;2022-07-03T06:27:58;3.37;;;2.30;;
295;SDS011;132;48.770;9.200;2022-07-03T06:30:24;4.70;;;2.63;;
295;SDS011;132;48.770;9.200;2022-07-03T06:32:51;2.50;;;2.17;;
295;SDS011;132;48.770;9.200;2022-07-03T06:35:17;2.70;;;2.53;;
295;SDS011;132;48.770;9.200;2022-07-03T06:37:43;3.03;;;2.40;;
295;SDS011;132;48.770;9.200;2022-07-03T06:40:10;2.50;;;2.30;;
295;SDS011;132;48.770;9.200;2022-07-03T06:42:36;3.33;;;2.20;;
295;SDS011;132;48.770;9.200;2022-07-03T06:45:03;2.77;;;2.40;;
295;SDS011;132;48.770;9.200;2022-07-03T06:47:29;2.40;;;2.30;;
295;SDS011;132;48.770;9.200;2022-07-03T06:49:56;2.87;;;2.47;;
295;SDS011;132;48.770;9.200;2022-07-03T06:52:22;2.37;;;2.20;;
295;SDS011;132;48.770;9.200;2022-07-03T06:54:49;2.63;;;2.30;;
295;SDS011;132;48.770;9.200;2022-07-03T06:57:15;4.33;;;2.47;;
295;SDS011;132;48.770;9.200;2022-07-03T06:59:41;2.67;;;2.47;;
295;SDS011;132;48.770;9.200;2022-07-03T07:02:08;4.23;;;2.60;;
295;SDS011;132;48.770;9.200;2022-07-03T07:04:34;2.87;;;2.33;;
295;SDS011;132;48.770;9.200;2022-07-03T07:07:01;4.43;;;2.30;;
295;SDS011;132;48.770;9.200;2022-07-03T07:09:27;2.67;;;2.50;;
295;SDS011;132;48.770;9.200;2022-07-03T07:11:53;2.93;;;2.60;;
295;SDS011;132;48.770;9.200;2022-07-03T07:14:20;3.80;;;2.63;;
295;SDS011;132;48.770;9.200;2022-07-03T07:16:46;3.53;;;2.30;;
295;SDS011;132;48.770;9.200;2022-07-03T07:19:12;4.60;;;2.80;;
295;SDS011;132;48.770;9.200;2022-07-03T07:21:39;2.80;;;2.43;;
295;SDS011;132;48.770;9.200;2022-07-03T07:24:05;3.43;;;2.50;;
295;SDS011;132;48.770;9.200;2022-07-03T07:26:32;2.40;;;2.20;;
295;SDS011;132;48.770;9.200;2022-07-03T07:28:58;2.57;;;2.30;;
295;SDS011;132;48.770;9.200;2022-07-03T07:31:25;2.20;;;2.10;;
295;SDS011;132;48.770;9.200;2022-07-03T07:33:51;2.37;;;2.20;;
295;SDS011;132;48.770;9.200;2022-07-03T07:36:18;2.20;;;2.00;;
295;SDS011;132;48.770;9.200;2022-07-03T07:38:44;3.70;;;2.20;;
295;SDS011;132;48.770;9.200;2022-07-03T07:41:10;4.20;;;2.30;;
295;SDS011;132;48.770;9.200;2022-07-03T07:43:36;4.97;;;2.33;;
295;SDS011;132;48.770;9.200;2022-07-03T07:46:03;1.80;;;1.80;;
295;SDS011;132;48.770;9.200;2022-07-03T07:48:29;3.53;;;2.53;;
295;SDS011;132;48.770;9.200;2022-07-03T07:50:56;3.00;;;2.37;;
295;SDS011;132;48.770;9.200;2022-07-03T07:53:22;3.03;;;2.27;;
295;SDS011;132;48.770;9.200;2022-07-03T07:55:48;3.00;;;2.23;;
295;SDS011;132;48.770;9.200;2022-07-03T07:58:15;5.90;;;2.40;;
295;SDS011;132;48.770;9.200;2022-07-03T08:00:41;3.10;;;2.30;;
295;SDS011;132;48.770;9.200;2022-07-03T08:03:29;2.23;;;2.10;;
295;SDS011;132;48.770;9.200;2022-07-03T08:06:25;2.93;;;2.03;;
295;SDS011;132;48.770;9.200;2022-07-03T08:08:51;3.70;;;2.13;;
295;SDS011;132;48.770;9.200;2022-07-03T08:11:17;1.90;;;1.90;;
295;SDS011;132;48.770;9.200;2022-07-03T08:13:44;2.33;;;1.87;;
295;SDS011;132;48.770;9.200;2022-07-03T08:16:12;2.97;;;1.87;;
295;SDS011;132;48.770;9.200;2022-07-03T08:18:39;3.33;;;2.20;;
295;SDS011;132;48.770;9.200;2022-07-03T08:21:05;2.37;;;2.00;;
295;SDS011;132;48.770;9.200;2022-07-03T08:23:32;5.00;;;2.10;;
295;SDS011;132;48.770;9.200;2022-07-03T08:25:58;2.40;;;2.10;;
295;SDS011;132;48.770;9.200;2022-07-03T08:28:25;2.77;;;1.87;;
295;SDS011;132;48.770;9.200;2022-07-03T08:30:52;3.23;;;2.53;;
295;SDS011;132;48.770;9.200;2022-07-03T08:33:19;4.77;;;2.40;;
295;SDS011;132;48.770;9.200;2022-07-03T08:35:45;7.63;;;2.20;;
295;SDS011;132;48.770;9.200;2022-07-03T08:38:12;2.30;;;2.10;;
295;SDS011;132;48.770;9.200;2022-07-03T08:40:38;2.17;;;1.90;;
295;SDS011;132;48.770;9.200;2022-07-03T08:43:06;2.20;;;2.00;;
295;SDS011;132;48.770;9.200;2022-07-03T08:45:33;1.93;;;1.87;;
295;SDS011;132;48.770;9.200;2022-07-03T08:48:00;3.20;;;1.93;;
295;SDS011;132;48.770;9.200;2022-07-03T08:50:30;2.00;;;1.90;;
295;SDS011;132;48.770;9.200;2022-07-03T08:52:59;2.27;;;2.00;;
295;SDS011;132;48.770;9.200;2022-07-03T08:55:26;2.10;;;2.00;;
295;SDS011;132;48.770;9.200;2022-07-03T08:57:52;2.77;;;2.20;;
295;SDS011;132;48.770;9.200;2022-07-03T09:00:21;3.77;;;2.17;;
295;SDS011;132;48.770;9.200;2022-07-03T09:02:48;2.30;;;1.97;;
295;SDS011;132;48.770;9.200;2022-07-03T09:05:16;2.73;;;2.20;;
295;SDS011;132;48.770;9.200;2022-07-03T09:07:43;21.90;;;4.50;;
295;SDS011;132;48.770;9.200;2022-07-03T09:10:11;6.57;;;2.50;;
295;SDS011;132;48.770;9.200;2022-07-03T09:12:39;2.63;;;2.00;;
295;SDS011;132;48.770;9.200;2022-07-03T09:15:07;1.80;;;1.80;;
295;SDS011;132;48.770;9.200;2022-07-03T09:17:34;3.93;;;1.97;;
295;SDS011;132;48.770;9.200;2022-07-03T09:20:03;6.33;;;2.00;;
295;SDS011;132;48.770;9.200;2022-07-03T09:22:32;4.03;;;2.20;;
295;SDS011;132;48.770;9.200;2022-07-03T09:25:10;1.93;;;1.90;;
295;SDS011;132;48.770;9.200;2022-07-03T09:27:39;2.47;;;1.87;;
295;SDS011;132;48.770;9.200;2022-07-03T09:30:18;3.50;;;1.97;;
295;SDS011;132;48.770;9.200;2022-07-03T09:32:48;2.53;;;1.90;;
295;SDS011;132;48.770;9.200;2022-07-03T09:37:58;2.17;;;1.70;;
295;SDS011;132;48.770;9.200;2022-07-03T09:40:50;3.97;;;2.00;;
295;SDS011;132;48.770;9.200;2022-07-03T09:43:21;2.10;;;1.83;;
295;SDS011;132;48.770;9.200;2022-07-03T09:45:50;4.00;;;1.93;;
295;SDS011;132;48.770;9.200;2022-07-03T09:48:30;1.97;;;1.80;;
295;SDS011;132;48.770;9.200;2022-07-03T09:53:52;1.73;;;1.70;;
295;SDS011;132;48.770;9.200;2022-07-03T09:56:21;2.70;;;1.80;;
295;SDS011;132;48.770;9.200;2022-07-03T09:59:05;2.10;;;1.80;;
295;SDS011;132;48.770;9.200;2022-07-03T10:01:33;2.90;;;1.80;;
295;SDS011;132;48.770;9.200;2022-07-03T10:09:23;3.30;;;1.93;;
295;SDS011;132;48.770;9.200;2022-07-03T10:11:53;1.90;;;1.80;;
295;SDS011;132;48.770;9.200;2022-07-03T10:14:21;1.90;;;1.80;;
295;SDS011;132;48.770;9.200;2022-07-03T10:16:49;2.33;;;2.00;;
295;SDS011;132;48.770;9.200;2022-07-03T10:19:21;4.60;;;2.13;;
295;SDS011;132;48.770;9.200;2022-07-03T10:24:20;3.20;;;2.03;;
295;SDS011;132;48.770;9.200;2022-07-03T10:26:49;1.90;;;1.80;;
295;SDS011;132;48.770;9.200;2022-07-03T10:29:17;2.47;;;1.90;;
295;SDS011;132;48.770;9.200;2022-07-03T10:31:47;2.80;;;2.00;;
295;SDS011;132;48.770;9.200;2022-07-03T10:34:17;1.80;;;1.80;;
295;SDS011;132;48.770;9.200;2022-07-03T10:36:46;1.90;;;1.70;;
295;SDS011;132;48.770;9.200;2022-07-03T10:39:29;2.80;;;1.70;;
295;SDS011;132;48.770;9.200;2022-07-03T10:42:11;1.87;;;1.77;;
295;SDS011;132;48.770;9.200;2022-07-03T10:50:07;2.80;;;2.10;;
295;SDS011;132;48.770;9.200;2022-07-03T10:52:35;2.77;;;1.80;;
295;SDS011;132;48.770;9.200;2022-07-03T10:55:02;2.30;;;1.80;;
295;SDS011;132;48.770;9.200;2022-07-03T10:57:32;1.90;;;1.80;;
295;SDS011;132;48.770;9.200;2022-07-03T11:00:00;4.70;;;2.10;;
295;SDS011;132;48.770;9.200;2022-07-03T11:02:33;2.13;;;1.90;;
295;SDS011;132;48.770;9.200;2022-07-03T11:25:51;2.97;;;2.33;;
295;SDS011;132;48.770;9.200;2022-07-03T11:36:23;4.37;;;3.13;;
295;SDS011;132;48.770;9.200;2022-07-03T11:41:57;2.83;;;2.10;;
295;SDS011;132;48.770;9.200;2022-07-03T11:44:18;2.20;;;2.00;;
295;SDS011;132;48.770;9.200;2022-07-03T11:46:47;2.50;;;2.20;;
295;SDS011;132;48.770;9.200;2022-07-03T11:49:15;3.77;;;2.27;;
295;SDS011;132;48.770;9.200;2022-07-03T11:51:53;2.53;;;2.20;;
295;SDS011;132;48.770;9.200;2022-07-03T11:54:24;9.03;;;2.23;;
295;SDS011;132;48.770;9.200;2022-07-03T11:56:51;4.03;;;2.50;;
295;SDS011;132;48.770;9.200;2022-07-03T11:59:17;10.67;;;7.90;;
295;SDS011;132;48.770;9.200;2022-07-03T12:01:44;57.90;;;41.20;;
295;SDS011;132;48.770;9.200;2022-07-03T12:04:12;20.53;;;12.87;;
295;SDS011;132;48.770;9.200;2022-07-03T12:06:41;8.53;;;4.63;;
295;SDS011;132;48.770;9.200;2022-07-03T12:09:22;5.17;;;3.20;;
295;SDS011;132;48.770;9.200;2022-07-03T12:14:33;3.23;;;2.43;;
295;SDS011;132;48.770;9.200;2022-07-03T12:17:11;2.87;;;2.70;;
295;SDS011;132;48.770;9.200;2022-07-03T12:22:33;2.47;;;2.30;;
295;SDS011;132;48.770;9.200;2022-07-03T12:25:08;4.20;;;2.70;;
295;SDS011;132;48.770;9.200;2022-07-03T12:27:39;4.80;;;2.93;;
295;SDS011;132;48.770;9.200;2022-07-03T12:30:07;5.30;;;2.50;;
295;SDS011;132;48.770;9.200;2022-07-03T12:32:39;2.60;;;2.43;;
295;SDS011;132;48.770;9.200;2022-07-03T12:35:06;3.40;;;2.77;;
295;SDS011;132;48.770;9.200;2022-07-03T12:37:33;3.80;;;2.60;;
295;SDS011;132;48.770;9.200;2022-07-03T12:40:07;3.33;;;2.20;;
295;SDS011;132;48.770;9.200;2022-07-03T12:42:51;4.73;;;2.40;;
295;SDS011;132;48.770;9.200;2022-07-03T12:45:19;2.83;;;2.60;;
295;SDS011;132;48.770;9.200;2022-07-03T12:47:56;3.27;;;3.10;;
295;SDS011;132;48.770;9.200;2022-07-03T12:50:43;3.70;;;2.73;;
295;SDS011;132;48.770;9.200;2022-07-03T12:53:29;2.90;;;1.93;;
295;SDS011;132;48.770;9.200;2022-07-03T12:56:03;3.90;;;2.50;;
295;SDS011;132;48.770;9.200;2022-07-03T12:58:33;7.57;;;3.10;;
295;SDS011;132;48.770;9.200;2022-07-03T13:01:23;2.30;;;2.10;;
295;SDS011;132;48.770;9.200;2022-07-03T13:03:54;3.90;;;3.70;;
295;SDS011;132;48.770;9.200;2022-07-03T13:06:21;2.00;;;1.90;;
295;SDS011;132;48.770;9.200;2022-07-03T13:08:52;2.60;;;2.17;;
295;SDS011;132;48.770;9.200;2022-07-03T13:11:38;2.90;;;2.70;;
295;SDS011;132;48.770;9.200;2022-07-03T13:14:07;2.70;;;2.30;;
295;SDS011;132;48.770;9.200;2022-07-03T13:16:38;3.23;;;2.50;;
295;SDS011;132;48.770;9.200;2022-07-03T13:19:06;2.80;;;2.20;;
295;SDS011;132;48.770;9.200;2022-07-03T13:21:34;3.00;;;2.50;;
295;SDS011;132;48.770;9.200;2022-07-03T13:24:01;2.10;;;1.97;;
295;SDS011;132;48.770;9.200;2022-07-03T13:26:27;2.40;;;2.20;;
295;SDS011;132;48.770;9.200;2022-07-03T13:28:55;2.90;;;2.40;;
295;SDS011;132;48.770;9.200;2022-07-03T13:31:21;3.07;;;2.90;;
295;SDS011;132;48.770;9.200;2022-07-03T13:33:48;2.70;;;2.57;;
295;SDS011;132;48.770;9.200;2022-07-03T13:36:14;2.80;;;2.60;;
295;SDS011;132;48.770;9.200;2022-07-03T13:38:43;5.97;;;5.67;;
295;SDS011;132;48.770;9.200;2022-07-03T13:41:10;5.40;;;2.80;;
295;SDS011;132;48.770;9.200;2022-07-03T13:43:37;7.00;;;2.40;;
295;SDS011;132;48.770;9.200;2022-07-03T13:46:03;6.10;;;5.80;;
295;SDS011;132;48.770;9.200;2022-07-03T13:48:30;1089.60;;;999.90;;
295;SDS011;132;48.770;9.200;2022-07-03T13:50:57;1109.63;;;999.90;;
295;SDS011;132;48.770;9.200;2022-07-03T13:53:23;960.13;;;914.37;;
295;SDS011;132;48.770;9.200;2022-07-03T13:55:50;3.60;;;2.70;;
295;SDS011;132;48.770;9.200;2022-07-03T13:58:16;249.60;;;237.67;;
295;SDS011;132;48.770;9.200;2022-07-03T14:00:43;421.63;;;401.50;;
295;SDS011;132;48.770;9.200;2022-07-03T14:03:09;35.43;;;33.70;;
295;SDS011;132;48.770;9.200;2022-07-03T14:05:35;1075.77;;;999.90;;
295;SDS011;132;48.770;9.200;2022-07-03T14:08:02;1132.20;;;999.90;;
295;SDS011;132;48.770;9.200;2022-07-03T14:10:29;1151.63;;;999.90;;
295;SDS011;132;48.770;9.200;2022-07-03T14:12:55;1147.53;;;999.90;;
295;SDS011;132;48.770;9.200;2022-07-03T14:15:21;1147.63;;;999.90;;
295;SDS011;132;48.770;9.200;2022-07-03T14:17:48;1149.80;;;999.90;;
295;SDS011;132;48.770;9.200;2022-07-03T14:20:14;1157.60;;;999.90;;
295;SDS011;132;48.770;9.200;2022-07-03T14:22:41;1155.77;;;999.90;;
295;SDS011;132;48.770;9.200;2022-07-03T14:25:07;1154.50;;;999.90;;
295;SDS011;132;48.770;9.200;2022-07-03T14:27:35;1152.73;;;999.90;;
295;SDS011;132;48.770;9.200;2022-07-03T14:30:21;1159.53;;;999.90;;
295;SDS011;132;48.770;9.200;2022-07-03T14:33:06;1152.97;;;999.90;;
295;SDS011;132;48.770;9.200;2022-07-03T14:35:32;1156.13;;;999.90;;
295;SDS011;132;48.770;9.200;2022-07-03T14:37:58;1150.67;;;999.90;;
295;SDS011;132;48.770;9.200;2022-07-03T14:40:25;1146.63;;;999.90;;
295;SDS011;132;48.770;9.200;2022-07-03T14:42:51;1147.80;;;999.90;;
295;SDS011;132;48.770;9.200;2022-07-03T14:45:18;1144.00;;;999.90;;
295;SDS011;132;48.770;9.200;2022-07-03T14:47:44;1141.13;;;999.90;;
295;SDS011;132;48.770;9.200;2022-07-03T14:50:11;1140.00;;;999.90;;
295;SDS011;132;48.770;9.200;2022-07-03T14:52:37;1132.93;;;999.90;;
295;SDS011;132;48.770;9.200;2022-07-03T14:55:04;1134.07;;;999.90;;
295;SDS011;132;48.770;9.200;2022-07-03T15:00:19;1125.30;;;999.90;;
295;SDS011;132;48.770;9.200;2022-07-03T15:02:56;1122.77;;;999.90;;
295;SDS011;132;48.770;9.200;2022-07-03T15:05:41;1129.17;;;999.90;;
295;SDS011;132;48.770;9.200;2022-07-03T15:10:50;1123.37;;;999.90;;
295;SDS011;132;48.770;9.200;2022-07-03T15:13:18;1113.93;;;999.90;;
295;SDS011;132;48.770;9.200;2022-07-03T15:15:45;1110.03;;;999.90;;
295;SDS011;132;48.770;9.200;2022-07-03T15:18:15;1110.90;;;999.90;;
295;SDS011;132;48.770;9.200;2022-07-03T15:20:44;1103.73;;;999.90;;
295;SDS011;132;48.770;9.200;2022-07-03T15:23:10;1096.47;;;999.90;;
295;SDS011;132;48.770;9.200;2022-07-03T15:25:38;1093.17;;;999.90;;
295;SDS011;132;48.770;9.200;2022-07-03T15:28:09;1094.20;;;999.90;;
295;SDS011;132;48.770;9.200;2022-07-03T15:30:36;1086.77;;;999.90;;
295;SDS011;132;48.770;9.200;2022-07-03T15:33:02;1084.37;;;999.90;;
295;SDS011;132;48.770;9.200;2022-07-03T15:35:28;1080.23;;;999.90;;
295;SDS011;132;48.770;9.200;2022-07-03T15:38:15;1075.90;;;999.90;;
295;SDS011;132;48.770;9.200;2022-07-03T15:40:47;1070.00;;;999.90;;
295;SDS011;132;48.770;9.200;2022-07-03T15:57:02;1008.60;;;960.53;;
295;SDS011;132;48.770;9.200;2022-07-03T15:59:29;988.77;;;941.67;;
295;SDS011;132;48.770;9.200;2022-07-03T16:02:01;876.73;;;834.93;;
295;SDS011;132;48.770;9.200;2022-07-03T16:07:30;717.23;;;683.03;;
295;SDS011;132;48.770;9.200;2022-07-03T16:10:03;498.60;;;474.80;;
295;SDS011;132;48.770;9.200;2022-07-03T16:12:35;64.87;;;61.77;;
295;SDS011;132;48.770;9.200;2022-07-03T16:15:03;9.03;;;8.53;;
295;SDS011;132;48.770;9.200;2022-07-03T16:17:31;6.10;;;4.50;;
295;SDS011;132;48.770;9.200;2022-07-03T16:19:59;2.83;;;2.70;;
295;SDS011;132;48.770;9.200;2022-07-03T16:22:28;2.40;;;2.30;;
295;SDS011;132;48.770;9.200;2022-07-03T16:24:58;7.10;;;4.03;;
295;SDS011;132;48.770;9.200;2022-07-03T16:27:27;2.20;;;2.00;;
295;SDS011;132;48.770;9.200;2022-07-03T16:29:54;2.20;;;2.00;;
295;SDS011;132;48.770;9.200;2022-07-03T16:32:26;2.20;;;2.00;;
295;SDS011;132;48.770;9.200;2022-07-03T16:37:40;8.13;;;2.10;;
295;SDS011;132;48.770;9.200;2022-07-03T16:40:18;3.07;;;2.10;;
295;SDS011;132;48.770;9.200;2022-07-03T16:42:45;2.70;;;1.90;;
295;SDS011;132;48.770;9.200;2022-07-03T16:45:14;2.93;;;2.40;;
295;SDS011;132;48.770;9.200;2022-07-03T16:47:41;6.33;;;2.40;;
295;SDS011;132;48.770;9.200;2022-07-03T16:50:10;4.50;;;2.33;;
295;SDS011;132;48.770;9.200;2022-07-03T16:52:42;6.20;;;2.20;;
295;SDS011;132;48.770;9.200;2022-07-03T16:55:11;2.20;;;2.00;;
295;SDS011;132;48.770;9.200;2022-07-03T16:57:42;2.50;;;2.20;;
295;SDS011;132;48.770;9.200;2022-07-03T17:00:12;2.80;;;2.53;;
295;SDS011;132;48.770;9.200;2022-07-03T17:02:40;2.67;;;2.20;;
295;SDS011;132;48.770;9.200;2022-07-03T17:05:09;4.20;;;2.40;;
295;SDS011;132;48.770;9.200;2022-07-03T17:07:38;7.67;;;2.43;;
295;SDS011;132;48.770;9.200;2022-07-03T17:10:08;4.33;;;2.30;;
295;SDS011;132;48.770;9.200;2022-07-03T17:12:45;6.50;;;2.40;;
295;SDS011;132;48.770;9.200;2022-07-03T17:15:13;3.10;;;2.20;;
295;SDS011;132;48.770;9.200;2022-07-03T17:17:43;3.80;;;2.60;;
295;SDS011;132;48.770;9.200;2022-07-03T17:20:20;5.10;;;2.20;;
295;SDS011;132;48.770;9.200;2022-07-03T17:22:49;3.63;;;2.17;;
295;SDS011;132;48.770;9.200;2022-07-03T17:25:22;2.60;;;2.10;;
295;SDS011;132;48.770;9.200;2022-07-03T17:27:59;2.37;;;2.03;;
295;SDS011;132;48.770;9.200;2022-07-03T17:30:34;2.83;;;2.27;;
295;SDS011;132;48.770;9.200;2022-07-03T17:33:11;6.50;;;2.20;;
295;SDS011;132;48.770;9.200;2022-07-03T17:35:44;2.20;;;2.00;;
295;SDS011;132;48.770;9.200;2022-07-03T17:38:16;4.63;;;2.23;;
295;SDS011;132;48.770;9.200;2022-07-03T17:40:43;2.13;;;1.87;;
295;SDS011;132;48.770;9.200;2022-07-03T17:43:12;3.30;;;1.90;;